sensor_id;sensor_type;location;lat;lon;timestamp;pressure;altitude;pressure_sealevel;temperature;humidity
27202;BME280;14717;46.924;15.474;2023-12-20T00:00:51;97767.84;;;-0.77;100.00
27202;BME280;14717;46.924;15.474;2023-12-20T00:03:16;97777.00;;;-0.78;100.00
27202;BME280;14717;46.924;15.474;2023-12-20T00:05:42;97775.66;;;-0.69;100.00
27202;BME280;14717;46.924;15.474;2023-12-20T00:08:07;97771.88;;;-0.86;100.00
27202;BME280;14717;46.924;15.474;2023-12-20T00:10:32;97774.31;;;-1.02;100.00
27202;BME280;14717;46.924;15.474;2023-12-20T00:12:58;97765.97;;;-1.01;100.00
27202;BME280;14717;46.924;15.474;2023-12-20T00:15:23;97762.66;;;-1.03;100.00
27202;BME280;14717;46.924;15.474;2023-12-20T00:17:48;97759.38;;;-1.05;100.00
27202;BME280;14717;46.924;15.474;2023-12-20T00:20:14;97750.31;;;-0.99;100.00
27202;BME280;14717;46.924;15.474;2023-12-20T00:22:39;97738.56;;;-1.11;100.00
27202;BME280;14717;46.924;15.474;2023-12-20T00:25:05;97734.13;;;-1.23;100.00
27202;BME280;14717;46.924;15.474;2023-12-20T00:27:30;97728.91;;;-1.25;100.00
27202;BME280;14717;46.924;15.474;2023-12-20T00:29:55;97731.34;;;-1.17;100.00
27202;BME280;14717;46.924;15.474;2023-12-20T00:32:21;97731.56;;;-1.18;100.00
27202;BME280;14717;46.924;15.474;2023-12-20T00:34:46;97721.50;;;-1.35;100.00
27202;BME280;14717;46.924;15.474;2023-12-20T00:37:11;97721.03;;;-1.50;100.00
27202;BME280;14717;46.924;15.474;2023-12-20T00:39:37;97714.03;;;-1.58;100.00
27202;BME280;14717;46.924;15.474;2023-12-20T00:42:02;97720.19;;;-1.51;100.00
27202;BME280;14717;46.924;15.474;2023-12-20T00:44:28;97711.56;;;-1.41;100.00
27202;BME280;14717;46.924;15.474;2023-12-20T00:46:53;97712.50;;;-1.29;100.00
27202;BME280;14717;46.924;15.474;2023-12-20T00:49:18;97709.91;;;-1.18;100.00
27202;BME280;14717;46.924;15.474;2023-12-20T00:51:44;97701.56;;;-1.17;100.00
27202;BME280;14717;46.924;15.474;2023-12-20T00:54:09;97695.81;;;-1.27;100.00
27202;BME280;14717;46.924;15.474;2023-12-20T00:56:35;97695.72;;;-1.38;100.00
27202;BME280;14717;46.924;15.474;2023-12-20T00:59:00;97693.56;;;-1.54;100.00
27202;BME280;14717;46.924;15.474;2023-12-20T01:01:26;97690.63;;;-1.52;100.00
27202;BME280;14717;46.924;15.474;2023-12-20T01:03:51;97688.25;;;-1.42;100.00
27202;BME280;14717;46.924;15.474;2023-12-20T01:06:17;97686.88;;;-1.51;100.00
27202;BME280;14717;46.924;15.474;2023-12-20T01:08:42;97692.69;;;-1.72;100.00
27202;BME280;14717;46.924;15.474;2023-12-20T01:11:07;97689.91;;;-1.90;100.00
27202;BME280;14717;46.924;15.474;2023-12-20T01:13:33;97694.13;;;-1.94;100.00
27202;BME280;14717;46.924;15.474;2023-12-20T01:15:58;97690.53;;;-1.88;100.00
27202;BME280;14717;46.924;15.474;2023-12-20T01:18:24;97692.97;;;-1.80;100.00
27202;BME280;14717;46.924;15.474;2023-12-20T01:20:49;97671.53;;;-1.81;100.00
27202;BME280;14717;46.924;15.474;2023-12-20T01:23:14;97671.81;;;-1.65;100.00
27202;BME280;14717;46.924;15.474;2023-12-20T01:25:40;97668.16;;;-1.53;100.00
27202;BME280;14717;46.924;15.474;2023-12-20T01:28:05;97682.41;;;-1.88;100.00
27202;BME280;14717;46.924;15.474;2023-12-20T01:30:31;97678.31;;;-1.97;100.00
27202;BME280;14717;46.924;15.474;2023-12-20T01:32:56;97670.31;;;-1.85;100.00
27202;BME280;14717;46.924;15.474;2023-12-20T01:35:21;97664.13;;;-1.68;100.00
27202;BME280;14717;46.924;15.474;2023-12-20T01:37:47;97661.56;;;-1.63;100.00
27202;BME280;14717;46.924;15.474;2023-12-20T01:40:12;97663.78;;;-1.78;100.00
27202;BME280;14717;46.924;15.474;2023-12-20T01:42:37;97656.84;;;-1.92;100.00
27202;BME280;14717;46.924;15.474;2023-12-20T01:45:03;97657.13;;;-2.00;100.00
27202;BME280;14717;46.924;15.474;2023-12-20T01:47:29;97657.44;;;-1.90;100.00
27202;BME280;14717;46.924;15.474;2023-12-20T01:49:54;97651.97;;;-1.83;100.00
27202;BME280;14717;46.924;15.474;2023-12-20T01:52:22;97650.59;;;-1.68;100.00
27202;BME280;14717;46.924;15.474;2023-12-20T01:54:48;97643.91;;;-1.66;100.00
27202;BME280;14717;46.924;15.474;2023-12-20T01:57:14;97645.00;;;-1.73;100.00
27202;BME280;14717;46.924;15.474;2023-12-20T01:59:40;97629.22;;;-1.76;100.00
27202;BME280;14717;46.924;15.474;2023-12-20T02:02:06;97628.72;;;-1.67;100.00
27202;BME280;14717;46.924;15.474;2023-12-20T02:04:33;97624.75;;;-1.64;100.00
27202;BME280;14717;46.924;15.474;2023-12-20T02:06:59;97620.50;;;-1.78;100.00
27202;BME280;14717;46.924;15.474;2023-12-20T02:09:24;97618.53;;;-1.71;100.00
27202;BME280;14717;46.924;15.474;2023-12-20T02:11:50;97606.38;;;-1.80;100.00
27202;BME280;14717;46.924;15.474;2023-12-20T02:14:15;97608.03;;;-1.79;100.00
27202;BME280;14717;46.924;15.474;2023-12-20T02:16:41;97604.03;;;-1.76;100.00
27202;BME280;14717;46.924;15.474;2023-12-20T02:19:12;97603.38;;;-1.72;100.00
27202;BME280;14717;46.924;15.474;2023-12-20T02:21:38;97594.34;;;-1.66;100.00
27202;BME280;14717;46.924;15.474;2023-12-20T02:24:03;97593.44;;;-1.78;100.00
27202;BME280;14717;46.924;15.474;2023-12-20T02:26:29;97591.81;;;-1.79;100.00
27202;BME280;14717;46.924;15.474;2023-12-20T02:28:54;97588.59;;;-1.94;100.00
27202;BME280;14717;46.924;15.474;2023-12-20T02:31:23;97586.94;;;-1.95;100.00
27202;BME280;14717;46.924;15.474;2023-12-20T02:33:49;97583.34;;;-1.89;100.00
27202;BME280;14717;46.924;15.474;2023-12-20T02:36:14;97576.00;;;-1.82;100.00
27202;BME280;14717;46.924;15.474;2023-12-20T02:38:40;97569.38;;;-1.86;100.00
27202;BME280;14717;46.924;15.474;2023-12-20T02:41:05;97568.09;;;-1.83;100.00
27202;BME280;14717;46.924;15.474;2023-12-20T02:43:30;97556.47;;;-1.84;100.00
27202;BME280;14717;46.924;15.474;2023-12-20T02:45:56;97560.91;;;-1.71;100.00
27202;BME280;14717;46.924;15.474;2023-12-20T02:48:22;97555.09;;;-1.75;100.00
27202;BME280;14717;46.924;15.474;2023-12-20T02:50:48;97556.47;;;-1.84;100.00
27202;BME280;14717;46.924;15.474;2023-12-20T02:53:14;97561.22;;;-2.04;100.00
27202;BME280;14717;46.924;15.474;2023-12-20T02:55:39;97556.69;;;-2.10;100.00
27202;BME280;14717;46.924;15.474;2023-12-20T02:58:05;97549.19;;;-2.08;100.00
27202;BME280;14717;46.924;15.474;2023-12-20T03:00:30;97545.06;;;-2.10;100.00
27202;BME280;14717;46.924;15.474;2023-12-20T03:02:55;97538.97;;;-2.06;100.00
27202;BME280;14717;46.924;15.474;2023-12-20T03:05:21;97533.28;;;-1.98;100.00
27202;BME280;14717;46.924;15.474;2023-12-20T03:07:46;97533.66;;;-1.94;100.00
27202;BME280;14717;46.924;15.474;2023-12-20T03:10:11;97526.47;;;-1.82;100.00
27202;BME280;14717;46.924;15.474;2023-12-20T03:12:37;97526.91;;;-1.85;100.00
27202;BME280;14717;46.924;15.474;2023-12-20T03:15:02;97516.91;;;-1.85;100.00
27202;BME280;14717;46.924;15.474;2023-12-20T03:17:28;97515.88;;;-1.84;100.00
27202;BME280;14717;46.924;15.474;2023-12-20T03:19:53;97506.47;;;-1.81;100.00
27202;BME280;14717;46.924;15.474;2023-12-20T03:22:19;97514.22;;;-1.85;100.00
27202;BME280;14717;46.924;15.474;2023-12-20T03:24:44;97499.47;;;-2.07;100.00
27202;BME280;14717;46.924;15.474;2023-12-20T03:27:09;97496.38;;;-2.10;100.00
27202;BME280;14717;46.924;15.474;2023-12-20T03:29:35;97500.81;;;-1.98;100.00
27202;BME280;14717;46.924;15.474;2023-12-20T03:32:00;97500.66;;;-2.03;100.00
27202;BME280;14717;46.924;15.474;2023-12-20T03:34:26;97498.88;;;-2.09;100.00
27202;BME280;14717;46.924;15.474;2023-12-20T03:36:51;97501.25;;;-2.43;100.00
27202;BME280;14717;46.924;15.474;2023-12-20T03:39:17;97504.47;;;-2.52;100.00
27202;BME280;14717;46.924;15.474;2023-12-20T03:41:42;97505.44;;;-2.47;100.00
27202;BME280;14717;46.924;15.474;2023-12-20T03:44:07;97509.00;;;-2.46;100.00
27202;BME280;14717;46.924;15.474;2023-12-20T03:46:33;97499.22;;;-2.47;100.00
27202;BME280;14717;46.924;15.474;2023-12-20T03:48:58;97499.59;;;-2.44;100.00
27202;BME280;14717;46.924;15.474;2023-12-20T03:51:23;97496.47;;;-2.41;100.00
27202;BME280;14717;46.924;15.474;2023-12-20T03:53:49;97497.91;;;-2.38;100.00
27202;BME280;14717;46.924;15.474;2023-12-20T03:56:14;97494.72;;;-2.35;100.00
27202;BME280;14717;46.924;15.474;2023-12-20T03:58:39;97499.09;;;-2.34;100.00
27202;BME280;14717;46.924;15.474;2023-12-20T04:01:09;97490.66;;;-2.44;100.00
27202;BME280;14717;46.924;15.474;2023-12-20T04:03:37;97492.41;;;-2.32;100.00
27202;BME280;14717;46.924;15.474;2023-12-20T04:06:03;97491.22;;;-2.36;100.00
27202;BME280;14717;46.924;15.474;2023-12-20T04:08:28;97501.31;;;-2.49;100.00
27202;BME280;14717;46.924;15.474;2023-12-20T04:10:53;97497.91;;;-2.38;100.00
27202;BME280;14717;46.924;15.474;2023-12-20T04:13:19;97508.81;;;-2.51;100.00
27202;BME280;14717;46.924;15.474;2023-12-20T04:15:44;97499.31;;;-2.60;100.00
27202;BME280;14717;46.924;15.474;2023-12-20T04:18:09;97495.97;;;-2.55;100.00
27202;BME280;14717;46.924;15.474;2023-12-20T04:20:35;97498.78;;;-2.44;100.00
27202;BME280;14717;46.924;15.474;2023-12-20T04:23:00;97494.13;;;-2.37;100.00
27202;BME280;14717;46.924;15.474;2023-12-20T04:25:26;97484.88;;;-2.23;100.00
27202;BME280;14717;46.924;15.474;2023-12-20T04:27:51;97479.00;;;-2.20;100.00
27202;BME280;14717;46.924;15.474;2023-12-20T04:30:17;97481.47;;;-2.19;100.00
27202;BME280;14717;46.924;15.474;2023-12-20T04:32:42;97483.44;;;-2.50;100.00
27202;BME280;14717;46.924;15.474;2023-12-20T04:35:07;97474.44;;;-2.68;100.00
27202;BME280;14717;46.924;15.474;2023-12-20T04:37:33;97484.28;;;-2.74;100.00
27202;BME280;14717;46.924;15.474;2023-12-20T04:39:59;97476.13;;;-2.67;100.00
27202;BME280;14717;46.924;15.474;2023-12-20T04:42:24;97478.78;;;-2.61;100.00
27202;BME280;14717;46.924;15.474;2023-12-20T04:44:49;97483.44;;;-2.50;100.00
27202;BME280;14717;46.924;15.474;2023-12-20T04:47:15;97486.41;;;-2.58;100.00
27202;BME280;14717;46.924;15.474;2023-12-20T04:49:40;97477.66;;;-2.54;100.00
27202;BME280;14717;46.924;15.474;2023-12-20T04:52:05;97482.50;;;-2.38;100.00
27202;BME280;14717;46.924;15.474;2023-12-20T04:54:31;97473.97;;;-2.35;100.00
27202;BME280;14717;46.924;15.474;2023-12-20T04:56:56;97460.81;;;-2.31;100.00
27202;BME280;14717;46.924;15.474;2023-12-20T04:59:21;97463.53;;;-2.31;100.00
27202;BME280;14717;46.924;15.474;2023-12-20T05:01:47;97456.56;;;-2.45;100.00
27202;BME280;14717;46.924;15.474;2023-12-20T05:04:12;97460.19;;;-2.51;100.00
27202;BME280;14717;46.924;15.474;2023-12-20T05:06:38;97456.88;;;-2.53;100.00
27202;BME280;14717;46.924;15.474;2023-12-20T05:09:03;97466.22;;;-2.80;100.00
27202;BME280;14717;46.924;15.474;2023-12-20T05:11:29;97471.63;;;-2.80;100.00
27202;BME280;14717;46.924;15.474;2023-12-20T05:13:54;97468.41;;;-2.64;100.00
27202;BME280;14717;46.924;15.474;2023-12-20T05:16:19;97465.19;;;-2.54;100.00
27202;BME280;14717;46.924;15.474;2023-12-20T05:18:48;97468.44;;;-2.46;100.00
27202;BME280;14717;46.924;15.474;2023-12-20T05:21:15;97473.03;;;-2.71;100.00
27202;BME280;14717;46.924;15.474;2023-12-20T05:23:41;97476.25;;;-2.87;100.00
27202;BME280;14717;46.924;15.474;2023-12-20T05:26:06;97470.44;;;-2.84;100.00
27202;BME280;14717;46.924;15.474;2023-12-20T05:28:31;97474.44;;;-2.93;100.00
27202;BME280;14717;46.924;15.474;2023-12-20T05:30:57;97469.53;;;-2.78;100.00
27202;BME280;14717;46.924;15.474;2023-12-20T05:33:23;97456.03;;;-2.78;100.00
27202;BME280;14717;46.924;15.474;2023-12-20T05:35:48;97458.56;;;-2.83;100.00
27202;BME280;14717;46.924;15.474;2023-12-20T05:38:13;97451.31;;;-2.82;100.00
27202;BME280;14717;46.924;15.474;2023-12-20T05:40:39;97453.75;;;-2.74;100.00
27202;BME280;14717;46.924;15.474;2023-12-20T05:43:04;97459.06;;;-2.68;100.00
27202;BME280;14717;46.924;15.474;2023-12-20T05:45:29;97462.34;;;-2.59;100.00
27202;BME280;14717;46.924;15.474;2023-12-20T05:47:55;97461.50;;;-2.60;100.00
27202;BME280;14717;46.924;15.474;2023-12-20T05:50:20;97452.94;;;-2.57;100.00
27202;BME280;14717;46.924;15.474;2023-12-20T05:52:46;97440.19;;;-2.50;100.00
27202;BME280;14717;46.924;15.474;2023-12-20T05:55:11;97428.78;;;-2.52;100.00
27202;BME280;14717;46.924;15.474;2023-12-20T05:57:37;97431.06;;;-2.49;100.00
27202;BME280;14717;46.924;15.474;2023-12-20T06:00:02;97426.84;;;-2.45;100.00
27202;BME280;14717;46.924;15.474;2023-12-20T06:02:28;97434.28;;;-2.41;100.00
27202;BME280;14717;46.924;15.474;2023-12-20T06:04:54;97429.38;;;-2.50;100.00
27202;BME280;14717;46.924;15.474;2023-12-20T06:07:19;97439.50;;;-2.63;100.00
27202;BME280;14717;46.924;15.474;2023-12-20T06:09:45;97454.88;;;-2.64;100.00
27202;BME280;14717;46.924;15.474;2023-12-20T06:12:11;97485.25;;;-2.68;100.00
27202;BME280;14717;46.924;15.474;2023-12-20T06:14:36;97500.16;;;-2.59;100.00
27202;BME280;14717;46.924;15.474;2023-12-20T06:17:02;97503.06;;;-2.37;100.00
27202;BME280;14717;46.924;15.474;2023-12-20T06:19:27;97494.41;;;-2.21;100.00
27202;BME280;14717;46.924;15.474;2023-12-20T06:21:53;97492.81;;;-2.11;100.00
27202;BME280;14717;46.924;15.474;2023-12-20T06:24:18;97495.84;;;-2.01;100.00
27202;BME280;14717;46.924;15.474;2023-12-20T06:26:44;97481.00;;;-1.92;100.00
27202;BME280;14717;46.924;15.474;2023-12-20T06:29:09;97484.44;;;-1.85;100.00
27202;BME280;14717;46.924;15.474;2023-12-20T06:31:34;97495.19;;;-1.78;100.00
27202;BME280;14717;46.924;15.474;2023-12-20T06:34:00;97491.34;;;-1.71;100.00
27202;BME280;14717;46.924;15.474;2023-12-20T06:36:26;97484.22;;;-1.66;100.00
27202;BME280;14717;46.924;15.474;2023-12-20T06:38:52;97473.84;;;-1.69;100.00
27202;BME280;14717;46.924;15.474;2023-12-20T06:41:17;97468.81;;;-1.65;100.00
27202;BME280;14717;46.924;15.474;2023-12-20T06:43:43;97459.09;;;-1.55;100.00
27202;BME280;14717;46.924;15.474;2023-12-20T06:46:08;97473.91;;;-1.57;100.00
27202;BME280;14717;46.924;15.474;2023-12-20T06:48:34;97484.53;;;-1.56;100.00
27202;BME280;14717;46.924;15.474;2023-12-20T06:51:01;97492.50;;;-1.43;100.00
27202;BME280;14717;46.924;15.474;2023-12-20T06:53:30;97484.50;;;-1.38;100.00
27202;BME280;14717;46.924;15.474;2023-12-20T06:55:55;97486.38;;;-1.38;100.00
27202;BME280;14717;46.924;15.474;2023-12-20T06:58:23;97490.88;;;-1.32;100.00
27202;BME280;14717;46.924;15.474;2023-12-20T07:00:50;97489.38;;;-1.28;100.00
27202;BME280;14717;46.924;15.474;2023-12-20T07:03:15;97499.06;;;-1.21;100.00
27202;BME280;14717;46.924;15.474;2023-12-20T07:05:41;97491.91;;;-1.16;100.00
27202;BME280;14717;46.924;15.474;2023-12-20T07:08:06;97503.03;;;-1.24;100.00
27202;BME280;14717;46.924;15.474;2023-12-20T07:10:32;97502.28;;;-1.13;100.00
27202;BME280;14717;46.924;15.474;2023-12-20T07:12:58;97512.22;;;-1.07;100.00
27202;BME280;14717;46.924;15.474;2023-12-20T07:15:23;97508.44;;;-1.06;100.00
27202;BME280;14717;46.924;15.474;2023-12-20T07:17:49;97522.44;;;-1.09;100.00
27202;BME280;14717;46.924;15.474;2023-12-20T07:20:14;97526.00;;;-1.08;100.00
27202;BME280;14717;46.924;15.474;2023-12-20T07:22:40;97542.75;;;-1.00;100.00
27202;BME280;14717;46.924;15.474;2023-12-20T07:25:06;97552.13;;;-0.85;100.00
27202;BME280;14717;46.924;15.474;2023-12-20T07:27:31;97542.00;;;-0.78;100.00
27202;BME280;14717;46.924;15.474;2023-12-20T07:29:57;97540.03;;;-0.71;100.00
27202;BME280;14717;46.924;15.474;2023-12-20T07:32:22;97534.91;;;-0.61;100.00
27202;BME280;14717;46.924;15.474;2023-12-20T07:34:47;97533.13;;;-0.55;100.00
27202;BME280;14717;46.924;15.474;2023-12-20T07:37:13;97525.47;;;-0.47;100.00
27202;BME280;14717;46.924;15.474;2023-12-20T07:39:42;97538.47;;;-0.38;100.00
27202;BME280;14717;46.924;15.474;2023-12-20T07:42:07;97543.09;;;-0.27;100.00
27202;BME280;14717;46.924;15.474;2023-12-20T07:44:33;97539.56;;;-0.16;100.00
27202;BME280;14717;46.924;15.474;2023-12-20T07:46:59;97559.06;;;-0.07;100.00
27202;BME280;14717;46.924;15.474;2023-12-20T07:49:24;97555.03;;;-0.05;100.00
27202;BME280;14717;46.924;15.474;2023-12-20T07:51:50;97561.66;;;-0.01;100.00
27202;BME280;14717;46.924;15.474;2023-12-20T07:54:15;97554.22;;;0.06;100.00
27202;BME280;14717;46.924;15.474;2023-12-20T07:56:41;97560.72;;;0.16;100.00
27202;BME280;14717;46.924;15.474;2023-12-20T07:59:06;97553.53;;;0.22;100.00
27202;BME280;14717;46.924;15.474;2023-12-20T08:01:32;97555.06;;;0.29;100.00
27202;BME280;14717;46.924;15.474;2023-12-20T08:03:57;97563.56;;;0.33;100.00
27202;BME280;14717;46.924;15.474;2023-12-20T08:06:22;97563.19;;;0.41;100.00
27202;BME280;14717;46.924;15.474;2023-12-20T08:08:48;97570.19;;;0.37;100.00
27202;BME280;14717;46.924;15.474;2023-12-20T08:11:13;97573.00;;;0.42;100.00
27202;BME280;14717;46.924;15.474;2023-12-20T08:13:38;97575.25;;;0.44;100.00
27202;BME280;14717;46.924;15.474;2023-12-20T08:16:04;97575.25;;;0.44;100.00
27202;BME280;14717;46.924;15.474;2023-12-20T08:18:29;97585.75;;;0.52;100.00
27202;BME280;14717;46.924;15.474;2023-12-20T08:20:55;97581.63;;;0.61;100.00
27202;BME280;14717;46.924;15.474;2023-12-20T08:23:20;97583.25;;;0.62;100.00
27202;BME280;14717;46.924;15.474;2023-12-20T08:25:46;97590.13;;;0.65;100.00
27202;BME280;14717;46.924;15.474;2023-12-20T08:28:12;97592.59;;;0.66;100.00
27202;BME280;14717;46.924;15.474;2023-12-20T08:30:37;97592.13;;;0.69;100.00
27202;BME280;14717;46.924;15.474;2023-12-20T08:33:03;97584.34;;;0.73;100.00
27202;BME280;14717;46.924;15.474;2023-12-20T08:35:29;97580.41;;;0.80;100.00
27202;BME280;14717;46.924;15.474;2023-12-20T08:37:55;97584.56;;;0.83;100.00
27202;BME280;14717;46.924;15.474;2023-12-20T08:40:20;97584.44;;;0.89;100.00
27202;BME280;14717;46.924;15.474;2023-12-20T08:42:46;97598.50;;;0.86;100.00
27202;BME280;14717;46.924;15.474;2023-12-20T08:45:11;97604.03;;;0.91;100.00
27202;BME280;14717;46.924;15.474;2023-12-20T08:47:36;97604.72;;;0.98;100.00
27202;BME280;14717;46.924;15.474;2023-12-20T08:50:03;97599.97;;;1.05;100.00
27202;BME280;14717;46.924;15.474;2023-12-20T08:52:28;97613.44;;;1.11;100.00
27202;BME280;14717;46.924;15.474;2023-12-20T08:54:54;97613.69;;;1.10;100.00
27202;BME280;14717;46.924;15.474;2023-12-20T08:57:20;97615.09;;;1.12;100.00
27202;BME280;14717;46.924;15.474;2023-12-20T08:59:49;97616.59;;;1.20;100.00
27202;BME280;14717;46.924;15.474;2023-12-20T09:02:16;97613.63;;;1.32;100.00
27202;BME280;14717;46.924;15.474;2023-12-20T09:04:41;97607.47;;;1.37;100.00
27202;BME280;14717;46.924;15.474;2023-12-20T09:07:07;97610.16;;;1.48;100.00
27202;BME280;14717;46.924;15.474;2023-12-20T09:09:32;97623.00;;;1.53;100.00
27202;BME280;14717;46.924;15.474;2023-12-20T09:11:58;97618.88;;;1.50;100.00
27202;BME280;14717;46.924;15.474;2023-12-20T09:14:23;97609.41;;;1.53;100.00
27202;BME280;14717;46.924;15.474;2023-12-20T09:16:49;97608.53;;;1.64;100.00
27202;BME280;14717;46.924;15.474;2023-12-20T09:19:16;97602.03;;;1.65;100.00
27202;BME280;14717;46.924;15.474;2023-12-20T09:21:42;97591.00;;;1.71;100.00
27202;BME280;14717;46.924;15.474;2023-12-20T09:24:07;97598.06;;;1.72;100.00
27202;BME280;14717;46.924;15.474;2023-12-20T09:26:34;97584.06;;;1.80;100.00
27202;BME280;14717;46.924;15.474;2023-12-20T09:28:59;97594.34;;;1.89;100.00
27202;BME280;14717;46.924;15.474;2023-12-20T09:31:25;97579.47;;;1.97;100.00
27202;BME280;14717;46.924;15.474;2023-12-20T09:33:50;97572.56;;;2.06;100.00
27202;BME280;14717;46.924;15.474;2023-12-20T09:36:15;97558.72;;;2.07;100.00
27202;BME280;14717;46.924;15.474;2023-12-20T09:38:41;97555.72;;;2.09;100.00
27202;BME280;14717;46.924;15.474;2023-12-20T09:41:08;97566.78;;;2.18;100.00
27202;BME280;14717;46.924;15.474;2023-12-20T09:43:37;97566.19;;;2.33;100.00
27202;BME280;14717;46.924;15.474;2023-12-20T09:46:05;97552.31;;;2.34;100.00
27202;BME280;14717;46.924;15.474;2023-12-20T09:48:32;97553.22;;;2.40;100.00
27202;BME280;14717;46.924;15.474;2023-12-20T09:50:58;97558.84;;;2.33;100.00
27202;BME280;14717;46.924;15.474;2023-12-20T09:53:24;97561.91;;;2.37;100.00
27202;BME280;14717;46.924;15.474;2023-12-20T09:55:57;97570.00;;;2.32;100.00
27202;BME280;14717;46.924;15.474;2023-12-20T09:58:24;97569.34;;;2.25;100.00
27202;BME280;14717;46.924;15.474;2023-12-20T10:00:49;97570.84;;;2.32;100.00
27202;BME280;14717;46.924;15.474;2023-12-20T10:03:15;97564.72;;;2.25;100.00
27202;BME280;14717;46.924;15.474;2023-12-20T10:05:43;97546.97;;;2.39;100.00
27202;BME280;14717;46.924;15.474;2023-12-20T10:08:09;97550.91;;;2.48;100.00
27202;BME280;14717;46.924;15.474;2023-12-20T10:10:35;97530.34;;;2.57;100.00
27202;BME280;14717;46.924;15.474;2023-12-20T10:13:10;97511.25;;;2.57;100.00
27202;BME280;14717;46.924;15.474;2023-12-20T10:15:36;97511.25;;;2.57;100.00
27202;BME280;14717;46.924;15.474;2023-12-20T10:18:02;97525.03;;;2.67;100.00
27202;BME280;14717;46.924;15.474;2023-12-20T10:20:28;97516.59;;;2.68;100.00
27202;BME280;14717;46.924;15.474;2023-12-20T10:22:55;97519.78;;;2.82;100.00
27202;BME280;14717;46.924;15.474;2023-12-20T10:25:20;97529.22;;;2.95;100.00
27202;BME280;14717;46.924;15.474;2023-12-20T10:27:46;97543.94;;;2.95;100.00
27202;BME280;14717;46.924;15.474;2023-12-20T10:30:13;97560.25;;;2.90;100.00
27202;BME280;14717;46.924;15.474;2023-12-20T10:32:39;97558.66;;;2.94;100.00
27202;BME280;14717;46.924;15.474;2023-12-20T10:35:06;97555.56;;;3.06;100.00
27202;BME280;14717;46.924;15.474;2023-12-20T10:37:35;97546.38;;;3.12;100.00
27202;BME280;14717;46.924;15.474;2023-12-20T10:40:03;97539.88;;;3.39;100.00
27202;BME280;14717;46.924;15.474;2023-12-20T10:42:29;97533.50;;;3.55;100.00
27202;BME280;14717;46.924;15.474;2023-12-20T10:44:56;97540.66;;;3.61;100.00
27202;BME280;14717;46.924;15.474;2023-12-20T10:47:22;97532.16;;;3.58;100.00
27202;BME280;14717;46.924;15.474;2023-12-20T10:49:52;97529.38;;;3.53;100.00
27202;BME280;14717;46.924;15.474;2023-12-20T10:52:17;97514.28;;;3.72;100.00
27202;BME280;14717;46.924;15.474;2023-12-20T10:54:43;97504.03;;;3.83;100.00
27202;BME280;14717;46.924;15.474;2023-12-20T10:57:09;97507.69;;;3.99;100.00
27202;BME280;14717;46.924;15.474;2023-12-20T10:59:37;97514.00;;;3.99;100.00
27202;BME280;14717;46.924;15.474;2023-12-20T11:02:04;97511.63;;;4.08;100.00
27202;BME280;14717;46.924;15.474;2023-12-20T11:07:19;97500.91;;;4.01;100.00
27202;BME280;14717;46.924;15.474;2023-12-20T11:10:17;97492.75;;;4.06;100.00
27202;BME280;14717;46.924;15.474;2023-12-20T11:13:12;97498.81;;;4.13;100.00
27202;BME280;14717;46.924;15.474;2023-12-20T11:15:40;97493.31;;;4.08;100.00
27202;BME280;14717;46.924;15.474;2023-12-20T11:18:06;97482.84;;;4.00;100.00
27202;BME280;14717;46.924;15.474;2023-12-20T11:20:36;97488.09;;;4.07;100.00
27202;BME280;14717;46.924;15.474;2023-12-20T11:23:02;97485.91;;;4.09;100.00
27202;BME280;14717;46.924;15.474;2023-12-20T11:25:28;97496.59;;;4.10;100.00
27202;BME280;14717;46.924;15.474;2023-12-20T11:28:12;97495.81;;;4.15;100.00
27202;BME280;14717;46.924;15.474;2023-12-20T11:30:48;97495.31;;;4.18;100.00
27202;BME280;14717;46.924;15.474;2023-12-20T11:33:15;97493.41;;;4.23;100.00
27202;BME280;14717;46.924;15.474;2023-12-20T11:35:41;97488.50;;;4.25;100.00
27202;BME280;14717;46.924;15.474;2023-12-20T11:38:10;97488.00;;;4.28;100.00
27202;BME280;14717;46.924;15.474;2023-12-20T11:40:36;97481.44;;;4.29;100.00
27202;BME280;14717;46.924;15.474;2023-12-20T11:43:02;97477.66;;;4.35;100.00
27202;BME280;14717;46.924;15.474;2023-12-20T11:45:27;97480.16;;;4.41;100.00
27202;BME280;14717;46.924;15.474;2023-12-20T11:47:53;97484.84;;;4.46;100.00
27202;BME280;14717;46.924;15.474;2023-12-20T11:50:20;97488.94;;;4.48;100.00
27202;BME280;14717;46.924;15.474;2023-12-20T11:52:46;97475.03;;;4.55;100.00
27202;BME280;14717;46.924;15.474;2023-12-20T11:55:12;97476.75;;;4.65;100.00
27202;BME280;14717;46.924;15.474;2023-12-20T11:57:38;97462.00;;;4.71;100.00
27202;BME280;14717;46.924;15.474;2023-12-20T12:00:04;97470.25;;;4.81;100.00
27202;BME280;14717;46.924;15.474;2023-12-20T12:02:30;97470.31;;;4.91;100.00
27202;BME280;14717;46.924;15.474;2023-12-20T12:04:55;97481.28;;;4.96;100.00
27202;BME280;14717;46.924;15.474;2023-12-20T12:07:21;97470.31;;;4.96;100.00
27202;BME280;14717;46.924;15.474;2023-12-20T12:09:47;97468.69;;;4.95;100.00
27202;BME280;14717;46.924;15.474;2023-12-20T12:12:13;97477.47;;;4.97;100.00
27202;BME280;14717;46.924;15.474;2023-12-20T12:14:39;97462.72;;;5.03;100.00
27202;BME280;14717;46.924;15.474;2023-12-20T12:17:13;97452.34;;;5.10;100.00
27202;BME280;14717;46.924;15.474;2023-12-20T12:19:39;97443.59;;;5.13;100.00
27202;BME280;14717;46.924;15.474;2023-12-20T12:24:37;97439.53;;;5.40;100.00
27202;BME280;14717;46.924;15.474;2023-12-20T12:27:05;97437.38;;;5.47;100.00
27202;BME280;14717;46.924;15.474;2023-12-20T12:29:30;97426.72;;;5.65;100.00
27202;BME280;14717;46.924;15.474;2023-12-20T12:31:56;97429.16;;;5.67;100.00
27202;BME280;14717;46.924;15.474;2023-12-20T12:34:21;97426.16;;;5.58;100.00
27202;BME280;14717;46.924;15.474;2023-12-20T12:36:48;97436.03;;;5.54;100.00
27202;BME280;14717;46.924;15.474;2023-12-20T12:39:13;97415.19;;;5.53;100.00
27202;BME280;14717;46.924;15.474;2023-12-20T12:41:40;97410.28;;;5.50;100.00